createdAt,value
2022-08-02T00:02:38.943Z,5.28
2022-08-02T00:05:24.167Z,6.13
2022-08-02T00:08:09.054Z,3.80
2022-08-02T00:10:55.129Z,4.88
2022-08-02T00:13:40.127Z,5.45
2022-08-02T00:16:37.939Z,3.90
2022-08-02T00:19:23.916Z,7.55
2022-08-02T00:22:09.415Z,4.10
2022-08-02T00:24:54.746Z,4.05
2022-08-02T00:27:40.251Z,4.70
2022-08-02T00:30:25.857Z,5.10
2022-08-02T00:33:11.270Z,3.63
2022-08-02T00:35:56.633Z,4.80
2022-08-02T00:38:42.288Z,7.00
2022-08-02T00:41:27.132Z,5.28
2022-08-02T00:44:12.304Z,6.30
2022-08-02T00:46:57.771Z,5.75
2022-08-02T00:49:43.079Z,5.23
2022-08-02T00:52:28.130Z,5.82
2022-08-02T00:55:13.145Z,5.20
2022-08-02T00:58:03.545Z,6.72
2022-08-02T01:00:48.689Z,5.55
2022-08-02T01:03:33.800Z,3.93
2022-08-02T01:06:19.039Z,4.40
2022-08-02T01:09:05.383Z,4.60
2022-08-02T01:11:50.748Z,6.13
2022-08-02T01:14:36.925Z,5.43
2022-08-02T01:17:37.051Z,3.70
2022-08-02T01:21:00.099Z,5.85
2022-08-02T01:23:54.215Z,6.28
2022-08-02T01:26:47.443Z,5.15
2022-08-02T01:29:37.472Z,5.53
2022-08-02T01:32:29.533Z,5.93
2022-08-02T01:35:21.922Z,5.82
2022-08-02T01:38:16.786Z,4.55
2022-08-02T01:41:04.555Z,5.07
2022-08-02T01:43:55.638Z,5.10
2022-08-02T01:46:43.615Z,4.90
2022-08-02T01:49:32.758Z,3.95
2022-08-02T01:52:22.506Z,5.72
2022-08-02T01:55:09.771Z,5.00
2022-08-02T01:58:03.383Z,4.38
2022-08-02T02:00:49.917Z,6.97
2022-08-02T02:03:41.791Z,5.05
2022-08-02T02:06:27.936Z,5.00
2022-08-02T02:09:15.444Z,5.07
2022-08-02T02:12:12.170Z,4.78
2022-08-02T02:15:02.244Z,4.10
2022-08-02T02:18:11.687Z,6.60
2022-08-02T02:20:56.954Z,3.58
2022-08-02T02:23:43.525Z,4.35
2022-08-02T02:26:31.915Z,4.28
2022-08-02T02:29:20.247Z,3.90
2022-08-02T02:32:06.487Z,5.65
2022-08-02T02:34:53.520Z,6.07
2022-08-02T02:37:40.448Z,6.80
2022-08-02T02:40:27.518Z,3.88
2022-08-02T02:43:13.915Z,4.63
2022-08-02T02:46:00.849Z,4.82
2022-08-02T02:48:46.099Z,5.70
2022-08-02T02:51:31.911Z,5.45
2022-08-02T02:54:32.979Z,4.65
2022-08-02T02:57:20.599Z,5.37
2022-08-02T03:00:09.362Z,4.70
2022-08-02T03:02:54.662Z,7.38
2022-08-02T03:05:39.893Z,5.72
2022-08-02T03:08:25.575Z,4.38
2022-08-02T03:11:12.072Z,6.43
2022-08-02T03:13:59.193Z,5.22
2022-08-02T03:16:51.215Z,4.82
2022-08-02T03:19:36.824Z,6.65
2022-08-02T03:22:21.853Z,5.90
2022-08-02T03:25:08.990Z,4.00
2022-08-02T03:27:54.048Z,7.38
2022-08-02T03:30:39.340Z,4.95
2022-08-02T03:33:26.645Z,5.30
2022-08-02T03:36:13.895Z,5.70
2022-08-02T03:39:01.587Z,6.27
2022-08-02T03:41:49.714Z,4.90
2022-08-02T03:44:37.971Z,6.03
2022-08-02T03:47:24.337Z,6.53
2022-08-02T03:50:12.819Z,7.85
2022-08-02T03:52:59.091Z,4.20
2022-08-02T03:55:45.006Z,6.00
2022-08-02T03:58:30.279Z,5.68
2022-08-02T04:01:15.674Z,6.32
2022-08-02T04:04:01.050Z,6.65
2022-08-02T04:06:46.283Z,5.20
2022-08-02T04:09:32.323Z,5.07
2022-08-02T04:12:17.477Z,7.45
2022-08-02T04:15:05.654Z,6.85
2022-08-02T04:18:00.084Z,5.93
2022-08-02T04:20:48.863Z,5.13
2022-08-02T04:23:36.622Z,4.68
2022-08-02T04:26:26.978Z,5.55
2022-08-02T04:29:14.959Z,5.47
2022-08-02T04:32:01.181Z,5.50
2022-08-02T04:35:11.291Z,3.73
2022-08-02T04:38:08.816Z,6.35
2022-08-02T04:40:55.993Z,6.68
2022-08-02T04:43:41.534Z,7.05
2022-08-02T04:46:26.586Z,5.50
2022-08-02T04:49:12.198Z,6.13
2022-08-02T04:51:57.614Z,7.20
2022-08-02T04:54:42.840Z,7.57
2022-08-02T04:57:53.125Z,4.90
2022-08-02T05:00:38.726Z,5.07
2022-08-02T05:03:23.792Z,7.17
2022-08-02T05:06:19.271Z,7.15
2022-08-02T05:09:04.830Z,5.47
2022-08-02T05:11:53.295Z,5.70
2022-08-02T05:14:40.431Z,5.47
2022-08-02T05:17:25.923Z,6.70
2022-08-02T05:20:13.513Z,7.78
2022-08-02T05:22:58.688Z,7.90
2022-08-02T05:25:44.210Z,6.88
2022-08-02T05:28:29.797Z,5.68
2022-08-02T05:31:17.206Z,7.97
2022-08-02T05:34:02.342Z,7.47
2022-08-02T05:36:47.338Z,6.32
2022-08-02T05:39:33.224Z,7.13
2022-08-02T05:42:18.051Z,6.28
2022-08-02T05:45:04.783Z,7.60
2022-08-02T05:47:49.847Z,6.18
2022-08-02T05:50:39.094Z,6.65
2022-08-02T05:53:34.943Z,7.57
2022-08-02T05:56:51.721Z,8.15
2022-08-02T05:59:48.243Z,6.50
2022-08-02T06:02:42.717Z,7.82
2022-08-02T06:05:32.132Z,6.57
2022-08-02T06:08:20.872Z,5.15
2022-08-02T06:11:07.115Z,7.97
2022-08-02T06:13:54.269Z,7.27
2022-08-02T06:16:42.536Z,6.53
2022-08-02T06:19:27.997Z,7.97
2022-08-02T06:22:36.086Z,8.20
2022-08-02T06:25:51.057Z,5.70
2022-08-02T06:28:28.367Z,8.27
2022-08-02T06:31:15.221Z,8.52
2022-08-02T06:34:00.314Z,5.32
2022-08-02T06:37:15.244Z,6.53
2022-08-02T06:40:09.724Z,5.50
2022-08-02T06:43:22.053Z,5.43
2022-08-02T06:46:34.457Z,6.35
2022-08-02T06:49:13.218Z,4.45
2022-08-02T06:51:58.421Z,5.82
2022-08-02T06:54:43.658Z,6.50
2022-08-02T06:57:30.113Z,6.50
2022-08-02T07:00:15.633Z,6.60
2022-08-02T07:03:02.694Z,5.15
2022-08-02T07:05:48.580Z,6.18
2022-08-02T07:08:33.801Z,5.78
2022-08-02T07:11:19.359Z,4.73
2022-08-02T07:14:04.467Z,5.32
2022-08-02T07:16:50.012Z,5.63
2022-08-02T07:19:38.228Z,4.68
2022-08-02T07:22:24.258Z,4.40
2022-08-02T07:25:10.130Z,5.37
2022-08-02T07:27:55.435Z,5.65
2022-08-02T07:30:43.157Z,4.60
2022-08-02T07:33:37.758Z,5.90
2022-08-02T07:36:24.308Z,7.50
2022-08-02T07:39:10.966Z,5.73
2022-08-02T07:41:55.869Z,4.38
2022-08-02T07:44:40.994Z,5.25
2022-08-02T07:47:26.292Z,5.30
2022-08-02T07:50:14.213Z,6.60
2022-08-02T07:52:59.655Z,6.70
2022-08-02T07:55:44.643Z,4.75
2022-08-02T07:58:30.159Z,4.78
2022-08-02T08:01:15.336Z,5.25
2022-08-02T08:04:00.527Z,4.85
2022-08-02T08:06:51.918Z,4.43
2022-08-02T08:09:41.828Z,5.43
2022-08-02T08:12:27.815Z,5.00
2022-08-02T08:15:12.776Z,5.53
2022-08-02T08:17:58.562Z,4.78
2022-08-02T08:20:43.708Z,4.57
2022-08-02T08:23:28.650Z,4.47
2022-08-02T08:26:15.858Z,4.43
2022-08-02T08:29:01.949Z,3.85
2022-08-02T08:31:47.570Z,5.63
2022-08-02T08:34:34.870Z,3.70
2022-08-02T08:37:20.060Z,6.20
2022-08-02T08:40:09.826Z,5.05
2022-08-02T08:42:54.992Z,3.53
2022-08-02T08:45:43.875Z,4.35
2022-08-02T08:48:33.073Z,5.07
2022-08-02T08:51:21.451Z,4.03
2022-08-02T08:54:10.681Z,4.05
2022-08-02T08:56:57.555Z,3.65
2022-08-02T08:59:42.365Z,4.00
2022-08-02T09:02:28.632Z,5.93
2022-08-02T09:05:16.571Z,3.90
2022-08-02T09:08:02.139Z,3.95
2022-08-02T09:10:48.443Z,4.53
2022-08-02T09:13:45.130Z,4.18
2022-08-02T09:16:40.422Z,4.17
2022-08-02T09:19:26.827Z,4.55
2022-08-02T09:22:15.064Z,3.83
2022-08-02T09:25:01.632Z,3.45
2022-08-02T09:27:48.386Z,2.67
2022-08-02T09:30:42.897Z,3.40
2022-08-02T09:33:28.657Z,2.78
2022-08-02T09:36:16.203Z,3.55
2022-08-02T09:39:04.692Z,3.88
2022-08-02T09:41:49.628Z,4.18
2022-08-02T09:44:34.521Z,3.20
2022-08-02T09:47:20.101Z,3.05
2022-08-02T09:50:05.562Z,2.50
2022-08-02T09:52:51.156Z,3.58
2022-08-02T09:55:36.892Z,3.58
2022-08-02T09:58:22.245Z,3.33
2022-08-02T10:01:08.880Z,3.83
2022-08-02T10:04:00.715Z,3.65
2022-08-02T10:06:47.065Z,3.53
2022-08-02T10:09:33.353Z,3.67
2022-08-02T10:12:21.003Z,2.93
2022-08-02T10:15:06.612Z,3.13
2022-08-02T10:17:51.656Z,3.70
2022-08-02T10:20:43.532Z,3.15
2022-08-02T10:23:34.370Z,3.45
2022-08-02T10:26:20.767Z,2.90
2022-08-02T10:29:05.836Z,2.80
2022-08-02T10:31:59.092Z,3.50
2022-08-02T10:35:20.073Z,3.05
2022-08-02T10:38:12.410Z,3.55
2022-08-02T10:40:57.697Z,3.17
2022-08-02T10:43:45.102Z,2.78
2022-08-02T10:46:38.114Z,2.92
2022-08-02T10:49:39.243Z,2.67
2022-08-02T10:52:26.203Z,3.42
2022-08-02T10:55:13.382Z,3.10
2022-08-02T10:58:32.358Z,3.00
2022-08-02T11:01:44.490Z,2.92
2022-08-02T11:04:49.857Z,2.70
2022-08-02T11:07:49.921Z,3.13
2022-08-02T11:10:39.699Z,3.57
2022-08-02T11:13:26.411Z,3.22
2022-08-02T11:16:12.058Z,2.53
2022-08-02T11:18:57.589Z,3.03
2022-08-02T11:22:00.595Z,2.72
2022-08-02T11:24:47.287Z,3.03
2022-08-02T11:27:32.819Z,3.00
2022-08-02T11:30:18.661Z,2.65
2022-08-02T11:33:04.498Z,2.85
2022-08-02T11:35:50.936Z,2.67
2022-08-02T11:38:36.346Z,2.90
2022-08-02T11:41:46.170Z,3.35
2022-08-02T11:44:30.171Z,3.10
2022-08-02T11:47:15.679Z,2.90
2022-08-02T11:50:08.812Z,2.88
2022-08-02T11:52:54.028Z,3.07
2022-08-02T11:55:39.164Z,2.50
2022-08-02T11:58:24.608Z,2.58
2022-08-02T12:01:10.100Z,2.47
2022-08-02T12:03:58.790Z,2.33
2022-08-02T12:06:54.531Z,2.20
2022-08-02T12:09:41.524Z,2.78
2022-08-02T12:12:27.245Z,2.92
2022-08-02T12:15:13.534Z,2.35
2022-08-02T12:18:18.650Z,2.53
2022-08-02T12:21:20.084Z,2.03
2022-08-02T12:24:05.437Z,2.33
2022-08-02T12:26:50.612Z,2.72
2022-08-02T12:29:58.025Z,2.28
2022-08-02T12:32:46.209Z,2.78
2022-08-02T12:35:31.246Z,2.27
2022-08-02T12:38:16.389Z,2.75
2022-08-02T12:41:30.378Z,3.08
2022-08-02T12:44:17.241Z,2.63
2022-08-02T12:47:12.420Z,2.95
2022-08-02T12:50:22.366Z,2.40
2022-08-02T12:53:11.670Z,2.63
2022-08-02T12:56:03.416Z,2.85
2022-08-02T12:58:50.177Z,2.90
2022-08-02T13:01:36.023Z,2.05
2022-08-02T13:04:21.281Z,2.73
2022-08-02T13:07:06.772Z,2.40
2022-08-02T13:09:51.746Z,2.28
2022-08-02T13:12:48.771Z,2.50
2022-08-02T13:15:46.465Z,2.38
2022-08-02T13:18:33.012Z,2.07
2022-08-02T13:21:40.002Z,2.45
2022-08-02T13:24:39.989Z,2.10
2022-08-02T13:27:28.612Z,2.83
2022-08-02T13:30:14.088Z,2.10
2022-08-02T13:33:01.237Z,2.53
2022-08-02T13:35:47.453Z,2.47
2022-08-02T13:38:32.467Z,2.47
2022-08-02T13:41:17.231Z,2.28
2022-08-02T13:44:09.907Z,2.58
2022-08-02T13:46:55.883Z,2.13
2022-08-02T13:49:50.752Z,2.40
2022-08-02T13:52:37.062Z,2.70
2022-08-02T13:55:21.976Z,2.33
2022-08-02T13:58:10.523Z,3.40
2022-08-02T14:00:55.486Z,1.83
2022-08-02T14:04:07.638Z,2.50
2022-08-02T14:06:45.268Z,2.15
2022-08-02T14:09:33.556Z,3.00
2022-08-02T14:12:18.756Z,2.20
2022-08-02T14:15:04.585Z,2.50
2022-08-02T14:17:49.910Z,2.05
2022-08-02T14:20:38.207Z,3.03
2022-08-02T14:23:49.980Z,2.05
2022-08-02T14:26:29.873Z,1.55
2022-08-02T14:29:15.932Z,2.70
2022-08-02T14:32:01.375Z,2.78
2022-08-02T14:34:46.504Z,1.98
2022-08-02T14:37:32.940Z,2.33
2022-08-02T14:40:28.045Z,1.80
2022-08-02T14:43:48.882Z,1.93
2022-08-02T14:46:41.233Z,2.30
2022-08-02T14:49:27.234Z,2.17
2022-08-02T14:52:14.468Z,2.67
2022-08-02T14:54:59.808Z,2.42
2022-08-02T14:57:45.313Z,2.50
2022-08-02T15:00:30.566Z,2.42
2022-08-02T15:03:16.052Z,2.35
2022-08-02T15:06:01.410Z,2.42
2022-08-02T15:08:47.106Z,1.98
2022-08-02T15:11:47.434Z,2.43
2022-08-02T15:14:33.724Z,1.80
2022-08-02T15:17:19.300Z,1.85
2022-08-02T15:20:24.594Z,2.00
2022-08-02T15:23:09.718Z,1.75
2022-08-02T15:25:55.258Z,2.13
2022-08-02T15:28:40.220Z,1.73
2022-08-02T15:31:33.690Z,2.47
2022-08-02T15:34:19.083Z,2.30
2022-08-02T15:37:04.834Z,2.97
2022-08-02T15:39:49.685Z,1.70
2022-08-02T15:42:35.071Z,1.92
2022-08-02T15:45:20.495Z,1.75
2022-08-02T15:48:06.810Z,2.88
2022-08-02T15:50:51.811Z,1.95
2022-08-02T15:53:36.720Z,2.03
2022-08-02T15:56:21.917Z,2.13
2022-08-02T15:59:09.826Z,2.33
2022-08-02T16:01:54.995Z,2.20
2022-08-02T16:04:40.413Z,2.25
2022-08-02T16:07:25.426Z,2.17
2022-08-02T16:10:11.592Z,1.77
2022-08-02T16:13:16.732Z,1.65
2022-08-02T16:16:01.643Z,1.48
2022-08-02T16:18:47.350Z,1.92
2022-08-02T16:21:32.640Z,1.60
2022-08-02T16:24:18.212Z,1.70
2022-08-02T16:27:03.452Z,1.73
2022-08-02T16:29:48.802Z,1.52
2022-08-02T16:32:33.859Z,2.17
2022-08-02T16:35:19.045Z,1.83
2022-08-02T16:38:04.211Z,1.70
2022-08-02T16:40:49.348Z,2.00
2022-08-02T16:43:35.098Z,2.08
2022-08-02T16:46:20.464Z,1.58
2022-08-02T16:49:06.499Z,1.77
2022-08-02T16:52:11.384Z,2.30
2022-08-02T16:54:56.290Z,1.90
2022-08-02T16:57:45.502Z,1.60
2022-08-02T17:00:35.947Z,1.77
2022-08-02T17:03:21.417Z,1.93
2022-08-02T17:06:07.046Z,1.65
2022-08-02T17:08:56.844Z,2.45
2022-08-02T17:11:46.670Z,1.80
2022-08-02T17:14:36.618Z,2.03
2022-08-02T17:17:42.145Z,1.97
2022-08-02T17:20:29.799Z,1.75
2022-08-02T17:23:16.312Z,2.00
2022-08-02T17:26:02.352Z,2.13
2022-08-02T17:29:14.220Z,1.73
2022-08-02T17:32:05.495Z,1.90
2022-08-02T17:34:59.799Z,2.80
2022-08-02T17:37:54.543Z,1.90
2022-08-02T17:40:45.184Z,1.98
2022-08-02T17:43:30.520Z,1.52
2022-08-02T17:46:17.540Z,1.80
2022-08-02T17:49:23.380Z,1.90
2022-08-02T17:52:48.964Z,1.85
2022-08-02T17:55:14.637Z,1.83
2022-08-02T17:57:59.967Z,3.42
2022-08-02T18:00:45.363Z,1.57
2022-08-02T18:03:30.869Z,1.95
2022-08-02T18:06:17.053Z,2.08
2022-08-02T18:09:04.024Z,2.10
2022-08-02T18:11:53.377Z,2.13
2022-08-02T18:17:44.123Z,2.88
2022-08-02T18:20:29.788Z,1.88
2022-08-02T18:23:15.026Z,1.67
2022-08-02T18:26:01.514Z,1.88
2022-08-02T18:28:46.692Z,1.83
2022-08-02T18:31:39.443Z,2.63
2022-08-02T18:34:25.162Z,2.22
2022-08-02T18:37:10.497Z,2.38
2022-08-02T18:39:55.741Z,1.83
2022-08-02T18:42:40.947Z,1.83
2022-08-02T18:46:04.544Z,2.00
2022-08-02T18:48:31.554Z,2.63
2022-08-02T18:51:19.112Z,1.58
2022-08-02T18:54:05.181Z,1.67
2022-08-02T18:56:50.672Z,2.17
2022-08-02T18:59:36.720Z,1.85
2022-08-02T19:05:53.124Z,1.30
2022-08-02T19:08:34.820Z,1.88
2022-08-02T19:11:19.844Z,1.83
2022-08-02T19:14:05.334Z,2.45
2022-08-02T19:16:51.174Z,2.00
2022-08-02T19:19:36.251Z,1.85
2022-08-02T19:22:21.517Z,1.50
2022-08-02T19:25:07.093Z,1.80
2022-08-02T19:27:59.398Z,1.83
2022-08-02T19:30:44.570Z,2.03
2022-08-02T19:34:06.305Z,1.95
2022-08-02T19:36:35.125Z,1.60
2022-08-02T19:39:20.295Z,1.60
2022-08-02T19:42:08.279Z,1.92
2022-08-02T19:44:54.297Z,2.00
2022-08-02T19:47:40.526Z,1.50
2022-08-02T19:50:40.076Z,2.28
2022-08-02T19:53:47.179Z,2.00
2022-08-02T19:56:33.816Z,1.30
2022-08-02T19:59:19.907Z,1.88
2022-08-02T20:02:06.568Z,1.60
2022-08-02T20:04:52.869Z,1.63
2022-08-02T20:07:56.391Z,2.00
2022-08-02T20:10:42.283Z,1.30
2022-08-02T20:13:34.706Z,2.08
2022-08-02T20:16:34.290Z,2.33
2022-08-02T20:19:19.986Z,1.85
2022-08-02T20:22:07.671Z,2.60
2022-08-02T20:24:53.259Z,1.80
2022-08-02T20:27:38.637Z,1.85
2022-08-02T20:30:37.853Z,1.50
2022-08-02T20:33:23.617Z,1.35
2022-08-02T20:36:08.977Z,2.03
2022-08-02T20:38:55.261Z,1.58
2022-08-02T20:41:45.702Z,1.67
2022-08-02T20:44:33.883Z,1.73
2022-08-02T20:47:19.484Z,2.97
2022-08-02T20:50:43.714Z,2.50
2022-08-02T20:53:30.108Z,1.67
2022-08-02T20:56:15.600Z,1.45
2022-08-02T20:59:15.884Z,2.70
2022-08-02T21:02:12.917Z,3.38
2022-08-02T21:05:07.664Z,2.07
2022-08-02T21:08:02.256Z,2.17
2022-08-02T21:10:51.761Z,2.25
2022-08-02T21:13:46.634Z,1.50
2022-08-02T21:16:32.286Z,2.30
2022-08-02T21:19:19.012Z,1.73
2022-08-02T21:22:07.096Z,1.98
2022-08-02T21:24:52.572Z,1.92
2022-08-02T21:27:51.831Z,2.33
2022-08-02T21:30:38.836Z,1.60
2022-08-02T21:33:24.044Z,2.30
2022-08-02T21:36:09.046Z,1.42
2022-08-02T21:38:57.793Z,1.70
2022-08-02T21:41:46.199Z,2.80
2022-08-02T21:44:32.566Z,2.25
2022-08-02T21:47:25.165Z,1.83
2022-08-02T21:50:16.120Z,3.70
2022-08-02T21:53:01.459Z,7.50
2022-08-02T21:56:00.715Z,8.13
2022-08-02T21:58:46.596Z,8.68
2022-08-02T22:01:34.321Z,11.73
2022-08-02T22:04:20.274Z,9.27
2022-08-02T22:07:05.672Z,8.23
2022-08-02T22:09:52.767Z,8.82
2022-08-02T22:12:38.267Z,9.55
2022-08-02T22:15:25.758Z,9.27
2022-08-02T22:18:21.289Z,9.00
2022-08-02T22:21:16.811Z,7.82
2022-08-02T22:24:02.924Z,9.40
2022-08-02T22:26:47.950Z,7.40
2022-08-02T22:29:33.390Z,8.60
2022-08-02T22:32:39.935Z,11.10
2022-08-02T22:35:25.270Z,7.68
2022-08-02T22:38:16.326Z,9.25
2022-08-02T22:41:03.499Z,7.53
2022-08-02T22:43:49.146Z,7.87
2022-08-02T22:46:35.353Z,8.38
2022-08-02T22:49:38.409Z,12.68
2022-08-02T22:52:27.620Z,9.70
2022-08-02T22:55:12.766Z,8.02
2022-08-02T22:57:58.617Z,7.63
2022-08-02T22:58:46.605Z,2.03
2022-08-02T22:58:58.831Z,3.17
2022-08-02T23:00:44.110Z,8.45
2022-08-02T23:03:29.732Z,8.65
2022-08-02T23:06:17.465Z,9.60
2022-08-02T23:09:02.840Z,7.68
2022-08-02T23:11:48.282Z,8.30
2022-08-02T23:14:33.265Z,8.20
2022-08-02T23:17:38.285Z,7.57
2022-08-02T23:20:23.576Z,6.40
2022-08-02T23:23:11.770Z,8.43
2022-08-02T23:25:56.916Z,8.30
2022-08-02T23:28:42.481Z,8.27
2022-08-02T23:31:38.022Z,7.95
2022-08-02T23:34:23.790Z,7.70
2022-08-02T23:37:09.655Z,8.93
2022-08-02T23:39:55.213Z,6.20
2022-08-02T23:42:40.494Z,8.40
2022-08-02T23:45:25.970Z,8.10
2022-08-02T23:48:19.858Z,9.63
2022-08-02T23:51:04.896Z,7.93
2022-08-02T23:53:49.836Z,8.53
2022-08-02T23:56:35.270Z,10.00
2022-08-02T23:59:20.118Z,9.07
